Map

Track Data

SID SEASON NUMBER BASIN SUBBASIN NAME ISO_TIME NATURE LAT LON WMO_WIND WMO_PRES WMO_AGENCY TRACK_TYPE DIST2LAND LANDFALL IFLAG USA_AGENCY USA_ATCF_ID USA_LAT USA_LON USA_RECORD USA_STATUS USA_WIND USA_PRES USA_SSHS USA_R34_NE USA_R34_SE USA_R34_SW USA_R34_NW USA_R50_NE USA_R50_SE USA_R50_SW USA_R50_NW USA_R64_NE USA_R64_SE USA_R64_SW USA_R64_NW USA_POCI USA_ROCI USA_RMW USA_EYE TOKYO_LAT TOKYO_LON TOKYO_GRADE TOKYO_WIND TOKYO_PRES TOKYO_R50_DIR TOKYO_R50_LONG TOKYO_R50_SHORT TOKYO_R30_DIR TOKYO_R30_LONG TOKYO_R30_SHORT TOKYO_LAND CMA_LAT CMA_LON CMA_CAT CMA_WIND CMA_PRES HKO_LAT HKO_LON HKO_CAT HKO_WIND HKO_PRES NEWDELHI_LAT NEWDELHI_LON NEWDELHI_GRADE NEWDELHI_WIND NEWDELHI_PRES NEWDELHI_CI NEWDELHI_DP NEWDELHI_POCI REUNION_LAT REUNION_LON REUNION_TYPE REUNION_WIND REUNION_PRES REUNION_TNUM REUNION_CI REUNION_RMW REUNION_R34_NE REUNION_R34_SE REUNION_R34_SW REUNION_R34_NW REUNION_R50_NE REUNION_R50_SE REUNION_R50_SW REUNION_R50_NW REUNION_R64_NE REUNION_R64_SE REUNION_R64_SW REUNION_R64_NW BOM_LAT BOM_LON BOM_TYPE BOM_WIND BOM_PRES BOM_TNUM BOM_CI BOM_RMW BOM_R34_NE BOM_R34_SE BOM_R34_SW BOM_R34_NW BOM_R50_NE BOM_R50_SE BOM_R50_SW BOM_R50_NW BOM_R64_NE BOM_R64_SE BOM_R64_SW BOM_R64_NW BOM_ROCI BOM_POCI BOM_EYE BOM_POS_METHOD BOM_PRES_METHOD NADI_LAT NADI_LON NADI_CAT NADI_WIND NADI_PRES WELLINGTON_LAT WELLINGTON_LON WELLINGTON_WIND WELLINGTON_PRES DS824_LAT DS824_LON DS824_STAGE DS824_WIND DS824_PRES TD9636_LAT TD9636_LON TD9636_STAGE TD9636_WIND TD9636_PRES TD9635_LAT TD9635_LON TD9635_WIND TD9635_PRES TD9635_ROCI NEUMANN_LAT NEUMANN_LON NEUMANN_CLASS NEUMANN_WIND NEUMANN_PRES MLC_LAT MLC_LON MLC_CLASS MLC_WIND MLC_PRES USA_GUST BOM_GUST BOM_GUST_PER REUNION_GUST REUNION_GUST_PER USA_SEAHGT USA_SEARAD_NE USA_SEARAD_SE USA_SEARAD_SW USA_SEARAD_NW STORM_SPEED STORM_DIR
1929293N27309 1929 69 NA NA NOT_NAMED 1929-10-19 12:00:00 TS 26.5000 -51.5000 30 hurdat_atl main 1706 1706 O_____________ hurdat_atl AL051929 26.5000 -51.5000 TD 30 -1 5 90
1929293N27309 1929 69 NA NA NOT_NAMED 1929-10-19 15:00:00 TS 26.5001 -51.2000 main 1732 1732 P_____________ AL051929 26.5001 -51.2000 TD 30 -1 5 90
1929293N27309 1929 69 NA NA NOT_NAMED 1929-10-19 18:00:00 TS 26.5000 -50.9000 30 hurdat_atl main 1758 1758 O_____________ hurdat_atl AL051929 26.5000 -50.9000 TD 30 -1 5 90
1929293N27309 1929 69 NA NA NOT_NAMED 1929-10-19 21:00:00 TS 26.4999 -50.6000 main 1785 1785 P_____________ AL051929 26.4999 -50.6000 TD 32 -1 5 90
1929293N27309 1929 69 NA NA NOT_NAMED 1929-10-20 00:00:00 TS 26.5000 -50.3000 35 hurdat_atl main 1811 1811 O_____________ hurdat_atl AL051929 26.5000 -50.3000 TS 35 0 5 92
1929293N27309 1929 69 NA NA NOT_NAMED 1929-10-20 03:00:00 TS 26.4849 -50.0074 main 1838 1838 P_____________ AL051929 26.4849 -50.0074 TS 37 0 5 90
1929293N27309 1929 69 NA NA NOT_NAMED 1929-10-20 06:00:00 TS 26.5000 -49.7000 40 hurdat_atl main 1865 1865 O_____________ hurdat_atl AL051929 26.5000 -49.7000 TS 40 0 6 84
1929293N27309 1929 69 NA NA NOT_NAMED 1929-10-20 09:00:00 TS 26.5398 -49.3795 main 1892 1892 P_____________ AL051929 26.5398 -49.3795 TS 42 0 7 72
1929293N27309 1929 69 NA NA NOT_NAMED 1929-10-20 12:00:00 TS 26.7000 -49.0000 45 hurdat_atl main 1937 1937 O_____________ hurdat_atl AL051929 26.7000 -49.0000 TS 45 0 9 58
1929293N27309 1929 69 NA NA NOT_NAMED 1929-10-20 15:00:00 TS 27.0174 -48.5370 main 1996 1996 P_____________ AL051929 27.0174 -48.5370 TS 47 0 12 48
1929293N27309 1929 69 NA NA NOT_NAMED 1929-10-20 18:00:00 TS 27.5000 -48.0000 50 hurdat_atl main 2065 2065 O_____________ hurdat_atl AL051929 27.5000 -48.0000 TS 50 0 15 43
1929293N27309 1929 69 NA NA NOT_NAMED 1929-10-20 21:00:00 TS 28.0750 -47.4144 main 2121 2058 P_____________ AL051929 28.0750 -47.4144 TS 52 0 17 39
1929293N27309 1929 69 NA NA NOT_NAMED 1929-10-21 00:00:00 TS 28.8000 -46.8000 55 hurdat_atl main 2058 1987 O_____________ hurdat_atl AL051929 28.8000 -46.8000 TS 55 0 19 35
1929293N27309 1929 69 NA NA NOT_NAMED 1929-10-21 03:00:00 TS 29.6404 -46.1410 main 1989 1907 P_____________ AL051929 29.6404 -46.1410 TS 57 0 21 30
1929293N27309 1929 69 NA NA NOT_NAMED 1929-10-21 06:00:00 TS 30.6000 -45.6000 60 hurdat_atl main 1896 1800 O_____________ hurdat_atl AL051929 30.6000 -45.6000 TS 60 0 21 20
1929293N27309 1929 69 NA NA NOT_NAMED 1929-10-21 09:00:00 TS 31.6345 -45.2801 main 1800 1699 P_____________ AL051929 31.6345 -45.2801 TS 62 0 21 9
1929293N27309 1929 69 NA NA NOT_NAMED 1929-10-21 12:00:00 TS 32.7000 -45.2000 65 hurdat_atl main 1688 1581 O_____________ hurdat_atl AL051929 32.7000 -45.2000 HU 65 1 21 359
1929293N27309 1929 69 NA NA NOT_NAMED 1929-10-21 15:00:00 TS 33.7225 -45.3311 main 1581 1478 P_____________ AL051929 33.7225 -45.3311 HU 67 1 20 351
1929293N27309 1929 69 NA NA NOT_NAMED 1929-10-21 18:00:00 TS 34.7000 -45.6000 70 hurdat_atl main 1468 1369 O_____________ hurdat_atl AL051929 34.7000 -45.6000 HU 70 1 19 348
1929293N27309 1929 69 NA NA NOT_NAMED 1929-10-21 21:00:00 TS 35.6074 -45.8358 main 1369 1277 P_____________ AL051929 35.6074 -45.8358 HU 70 1 19 347
1929293N27309 1929 69 NA NA NOT_NAMED 1929-10-22 00:00:00 TS 36.5000 -46.1000 70 hurdat_atl main 1267 1165 O_____________ hurdat_atl AL051929 36.5000 -46.1000 HU 70 1 19 346
1929293N27309 1929 69 NA NA NOT_NAMED 1929-10-22 03:00:00 TS 37.4424 -46.3857 main 1165 1064 P_____________ AL051929 37.4424 -46.3857 HU 70 1 20 346
1929293N27309 1929 69 NA NA NOT_NAMED 1929-10-22 06:00:00 ET 38.4000 -46.7000 70 hurdat_atl main 1054 954 O_____________ hurdat_atl AL051929 38.4000 -46.7000 EX 70 -4 20 345
1929293N27309 1929 69 NA NA NOT_NAMED 1929-10-22 09:00:00 ET 39.3651 -47.0573 main 940 850 P_____________ AL051929 39.3651 -47.0573 EX 67 -4 20 344
1929293N27309 1929 69 NA NA NOT_NAMED 1929-10-22 12:00:00 ET 40.3000 -47.4000 65 hurdat_atl main 841 752 O_____________ hurdat_atl AL051929 40.3000 -47.4000 EX 65 -4 19 345
1929293N27309 1929 69 NA NA NOT_NAMED 1929-10-22 15:00:00 ET 41.1799 -47.6952 main 743 661 P_____________ AL051929 41.1799 -47.6952 EX 62 -4 17 348
1929293N27309 1929 69 NA NA NOT_NAMED 1929-10-22 18:00:00 ET 42.0000 -47.9000 60 hurdat_atl main 661 596 O_____________ hurdat_atl AL051929 42.0000 -47.9000 EX 60 -4 16 352
1929293N27309 1929 69 NA NA NOT_NAMED 1929-10-22 21:00:00 ET 42.7650 -47.9854 main 587 532 P_____________ AL051929 42.7650 -47.9854 EX 55 -4 15 358
1929293N27309 1929 69 NA NA NOT_NAMED 1929-10-23 00:00:00 ET 43.5000 -48.0000 50 hurdat_atl main 532 O_____________ hurdat_atl AL051929 43.5000 -48.0000 EX 50 -4 15 0

About IBTrACS Database

This database is a web-friendly format of International Best Track Archive for Climate Stewardship (IBTrACS), a global best track data archive curated by NOAA dating back to 1842.

Updated: 2021-10-08